createdAt,value
2018-12-16T00:00:20.351Z,21.80
2018-12-16T00:02:47.832Z,18.52
2018-12-16T00:05:15.456Z,22.27
2018-12-16T00:07:43.140Z,20.02
2018-12-16T00:10:10.641Z,20.45
2018-12-16T00:12:38.171Z,20.57
2018-12-16T00:15:05.840Z,20.80
2018-12-16T00:17:33.390Z,22.65
2018-12-16T00:20:01.252Z,21.95
2018-12-16T00:22:29.947Z,20.52
2018-12-16T00:24:58.009Z,18.10
2018-12-16T00:27:31.963Z,26.40
2018-12-16T00:29:59.508Z,23.42
2018-12-16T00:32:29.119Z,22.52
2018-12-16T00:34:56.607Z,23.20
2018-12-16T00:37:24.231Z,15.95
2018-12-16T00:39:51.765Z,23.77
2018-12-16T00:42:19.319Z,21.75
2018-12-16T00:44:46.792Z,25.12
2018-12-16T00:47:14.335Z,19.82
2018-12-16T00:49:41.878Z,17.50
2018-12-16T00:52:09.351Z,18.70
2018-12-16T00:54:36.862Z,20.10
2018-12-16T00:57:04.494Z,18.07
2018-12-16T00:59:32.068Z,15.28
2018-12-16T01:01:59.645Z,16.67
2018-12-16T01:04:27.427Z,15.80
2018-12-16T01:06:54.957Z,22.45
2018-12-16T01:09:22.576Z,19.50
2018-12-16T01:11:50.179Z,21.62
2018-12-16T01:14:17.717Z,16.30
2018-12-16T01:16:45.195Z,21.50
2018-12-16T01:19:12.846Z,19.87
2018-12-16T01:21:40.513Z,18.98
2018-12-16T01:24:08.038Z,18.70
2018-12-16T01:26:35.517Z,23.05
2018-12-16T01:29:03.124Z,20.30
2018-12-16T01:31:30.587Z,21.80
2018-12-16T01:33:58.143Z,19.57
2018-12-16T01:36:25.685Z,17.87
2018-12-16T01:38:53.206Z,20.12
2018-12-16T01:41:20.714Z,17.45
2018-12-16T01:43:48.195Z,23.25
2018-12-16T01:46:15.673Z,18.02
2018-12-16T01:48:43.201Z,21.27
2018-12-16T01:51:10.747Z,18.57
2018-12-16T01:53:38.255Z,22.00
2018-12-16T01:56:05.782Z,21.90
2018-12-16T01:58:33.277Z,22.80
2018-12-16T02:01:00.789Z,19.50
2018-12-16T02:03:28.509Z,18.40
2018-12-16T02:05:56.007Z,20.23
2018-12-16T02:08:23.518Z,22.67
2018-12-16T02:10:51.128Z,21.97
2018-12-16T02:13:18.668Z,20.00
2018-12-16T02:15:46.143Z,18.55
2018-12-16T02:18:13.656Z,16.07
2018-12-16T02:20:41.178Z,22.30
2018-12-16T02:23:08.711Z,19.57
2018-12-16T02:25:36.212Z,21.55
2018-12-16T02:28:03.719Z,20.82
2018-12-16T02:30:31.473Z,22.10
2018-12-16T02:32:58.994Z,20.55
2018-12-16T02:35:26.483Z,20.62
2018-12-16T02:37:54.011Z,21.52
2018-12-16T02:40:21.675Z,16.57
2018-12-16T02:42:49.149Z,25.02
2018-12-16T02:45:16.664Z,20.15
2018-12-16T02:47:47.073Z,24.25
2018-12-16T02:50:14.594Z,24.02
2018-12-16T02:52:42.457Z,25.95
2018-12-16T02:55:09.997Z,27.10
2018-12-16T02:57:37.477Z,19.80
2018-12-16T03:00:06.575Z,25.02
2018-12-16T03:02:34.171Z,21.52
2018-12-16T03:05:01.711Z,19.90
2018-12-16T03:07:29.245Z,22.17
2018-12-16T03:09:56.793Z,26.27
2018-12-16T03:12:24.275Z,21.60
2018-12-16T03:14:51.769Z,23.02
2018-12-16T03:17:19.297Z,20.27
2018-12-16T03:19:46.844Z,22.40
2018-12-16T03:22:14.334Z,16.37
2018-12-16T03:24:41.895Z,21.23
2018-12-16T03:27:09.424Z,23.70
2018-12-16T03:29:36.902Z,20.10
2018-12-16T03:32:04.414Z,20.75
2018-12-16T03:34:31.949Z,18.23
2018-12-16T03:36:59.472Z,19.85
2018-12-16T03:39:26.956Z,23.15
2018-12-16T03:41:54.515Z,17.48
2018-12-16T03:44:22.015Z,24.18
2018-12-16T03:46:49.519Z,20.68
2018-12-16T03:49:17.074Z,19.77
2018-12-16T03:51:44.617Z,24.77
2018-12-16T03:54:12.107Z,19.55
2018-12-16T03:56:39.612Z,23.95
2018-12-16T03:59:15.440Z,20.88
2018-12-16T04:01:45.436Z,22.55
2018-12-16T04:04:13.688Z,21.60
2018-12-16T04:06:43.158Z,18.80
2018-12-16T04:09:10.747Z,21.20
2018-12-16T04:11:39.046Z,22.32
2018-12-16T04:14:06.579Z,29.90
2018-12-16T04:16:34.061Z,24.98
2018-12-16T04:19:01.595Z,23.30
2018-12-16T04:21:29.138Z,22.77
2018-12-16T04:23:56.655Z,32.45
2018-12-16T04:26:24.160Z,27.65
2018-12-16T04:28:51.679Z,25.70
2018-12-16T04:31:19.235Z,28.67
2018-12-16T04:33:46.746Z,25.25
2018-12-16T04:36:14.259Z,24.85
2018-12-16T04:38:41.889Z,28.20
2018-12-16T04:41:09.428Z,28.32
2018-12-16T04:43:36.960Z,29.52
2018-12-16T04:46:04.494Z,24.12
2018-12-16T04:48:32.029Z,29.30
2018-12-16T04:50:59.518Z,24.63
2018-12-16T04:53:27.075Z,31.62
2018-12-16T04:55:54.623Z,26.60
2018-12-16T04:58:22.119Z,28.47
2018-12-16T05:00:49.622Z,26.52
2018-12-16T05:03:17.217Z,29.40
2018-12-16T05:05:44.723Z,29.92
2018-12-16T05:08:12.421Z,29.70
2018-12-16T05:10:39.922Z,25.20
2018-12-16T05:13:07.452Z,25.92
2018-12-16T05:15:35.048Z,30.02
2018-12-16T05:18:02.515Z,26.95
2018-12-16T05:20:30.064Z,31.20
2018-12-16T05:22:57.597Z,27.65
2018-12-16T05:25:25.149Z,26.77
2018-12-16T05:27:52.671Z,29.92
2018-12-16T05:30:20.143Z,29.60
2018-12-16T05:32:47.676Z,27.00
2018-12-16T05:35:15.183Z,29.00
2018-12-16T05:37:42.748Z,27.90
2018-12-16T05:40:10.230Z,30.68
2018-12-16T05:42:37.723Z,29.87
2018-12-16T05:45:05.465Z,28.27
2018-12-16T05:47:33.004Z,29.50
2018-12-16T05:50:00.720Z,29.77
2018-12-16T05:52:28.213Z,33.90
2018-12-16T05:54:55.747Z,29.27
2018-12-16T05:57:23.277Z,27.07
2018-12-16T05:59:50.944Z,27.35
2018-12-16T06:02:18.429Z,31.55
2018-12-16T06:04:45.987Z,33.25
2018-12-16T06:07:13.488Z,34.53
2018-12-16T06:09:41.014Z,31.27
2018-12-16T06:12:08.575Z,33.65
2018-12-16T06:14:36.124Z,27.13
2018-12-16T06:17:03.723Z,31.87
2018-12-16T06:19:31.196Z,31.82
2018-12-16T06:21:58.732Z,29.82
2018-12-16T06:24:26.352Z,34.55
2018-12-16T06:26:53.887Z,27.35
2018-12-16T06:29:21.389Z,28.70
2018-12-16T06:31:48.900Z,32.20
2018-12-16T06:34:16.489Z,33.88
2018-12-16T06:36:44.001Z,30.77
2018-12-16T06:39:12.290Z,27.80
2018-12-16T06:41:39.826Z,29.52
2018-12-16T06:44:07.292Z,24.82
2018-12-16T06:46:34.815Z,30.40
2018-12-16T06:49:02.313Z,33.48
2018-12-16T06:51:29.990Z,34.58
2018-12-16T06:54:02.416Z,28.38
2018-12-16T06:56:27.096Z,35.33
2018-12-16T06:58:54.582Z,28.55
2018-12-16T07:01:22.081Z,29.48
2018-12-16T07:03:49.634Z,30.15
2018-12-16T07:06:17.139Z,33.40
2018-12-16T07:08:44.688Z,29.92
2018-12-16T07:11:12.225Z,36.20
2018-12-16T07:13:39.742Z,28.85
2018-12-16T07:16:07.238Z,27.35
2018-12-16T07:18:34.736Z,31.82
2018-12-16T07:21:02.226Z,30.77
2018-12-16T07:23:29.780Z,34.88
2018-12-16T07:25:58.258Z,32.00
2018-12-16T07:28:25.829Z,33.85
2018-12-16T07:30:53.386Z,31.65
2018-12-16T07:33:20.952Z,39.65
2018-12-16T07:35:48.480Z,30.05
2018-12-16T07:38:16.079Z,33.40
2018-12-16T07:40:43.632Z,30.00
2018-12-16T07:43:11.125Z,30.55
2018-12-16T07:45:38.599Z,27.60
2018-12-16T07:48:06.176Z,28.23
2018-12-16T07:50:33.651Z,32.98
2018-12-16T07:53:01.150Z,33.15
2018-12-16T07:55:29.400Z,29.37
2018-12-16T07:57:57.089Z,28.35
2018-12-16T08:00:24.659Z,28.42
2018-12-16T08:02:52.436Z,31.23
2018-12-16T08:05:20.433Z,30.45
2018-12-16T08:07:47.958Z,33.83
2018-12-16T08:10:15.505Z,32.00
2018-12-16T08:12:43.065Z,32.35
2018-12-16T08:15:10.647Z,36.05
2018-12-16T08:17:38.200Z,29.25
2018-12-16T08:20:06.816Z,29.90
2018-12-16T08:22:34.368Z,33.48
2018-12-16T08:25:01.916Z,29.02
2018-12-16T08:27:29.432Z,36.98
2018-12-16T08:29:56.919Z,34.30
2018-12-16T08:32:24.456Z,30.37
2018-12-16T08:34:51.996Z,34.15
2018-12-16T08:37:19.472Z,33.13
2018-12-16T08:39:46.983Z,31.60
2018-12-16T08:42:14.456Z,35.63
2018-12-16T08:44:41.972Z,34.98
2018-12-16T08:47:09.446Z,35.35
2018-12-16T08:49:36.986Z,34.10
2018-12-16T08:52:04.488Z,32.98
2018-12-16T08:54:32.044Z,33.73
2018-12-16T08:56:59.556Z,29.85
2018-12-16T08:59:27.101Z,37.73
2018-12-16T09:01:54.725Z,34.27
2018-12-16T09:04:22.646Z,28.15
2018-12-16T09:06:50.220Z,32.83
2018-12-16T09:09:18.057Z,29.87
2018-12-16T09:11:45.581Z,34.45
2018-12-16T09:14:13.117Z,37.03
2018-12-16T09:16:40.631Z,33.60
2018-12-16T09:19:08.172Z,31.20
2018-12-16T09:21:35.710Z,31.37
2018-12-16T09:24:03.319Z,34.50
2018-12-16T09:26:30.848Z,39.50
2018-12-16T09:28:58.335Z,41.92
2018-12-16T09:31:25.861Z,35.38
2018-12-16T09:33:53.448Z,37.33
2018-12-16T09:36:20.962Z,34.63
2018-12-16T09:38:48.532Z,30.00
2018-12-16T09:41:16.141Z,34.27
2018-12-16T09:43:43.682Z,33.80
2018-12-16T09:46:11.202Z,36.28
2018-12-16T09:48:38.732Z,30.90
2018-12-16T09:51:06.291Z,33.02
2018-12-16T09:53:33.831Z,31.25
2018-12-16T09:56:01.498Z,39.90
2018-12-16T09:58:29.185Z,33.98
2018-12-16T10:00:56.736Z,30.30
2018-12-16T10:03:24.261Z,32.25
2018-12-16T10:05:51.913Z,29.12
2018-12-16T10:08:19.612Z,33.53
2018-12-16T10:10:47.285Z,35.70
2018-12-16T10:13:14.789Z,33.23
2018-12-16T10:15:44.147Z,29.70
2018-12-16T10:18:11.872Z,39.55
2018-12-16T10:20:39.656Z,42.40
2018-12-16T10:23:07.307Z,36.88
2018-12-16T10:25:35.070Z,42.85
2018-12-16T10:28:02.744Z,37.93
2018-12-16T10:30:30.416Z,35.68
2018-12-16T10:32:58.064Z,32.08
2018-12-16T10:35:25.769Z,30.23
2018-12-16T10:37:53.399Z,38.13
2018-12-16T10:40:21.145Z,31.65
2018-12-16T10:42:48.739Z,36.15
2018-12-16T10:45:16.587Z,36.93
2018-12-16T10:47:44.167Z,36.42
2018-12-16T10:50:11.792Z,43.08
2018-12-16T10:52:39.463Z,35.78
2018-12-16T10:55:07.725Z,34.50
2018-12-16T10:57:35.353Z,37.95
2018-12-16T11:00:04.777Z,35.78
2018-12-16T11:02:32.729Z,34.30
2018-12-16T11:05:01.109Z,38.10
2018-12-16T11:07:28.965Z,36.75
2018-12-16T11:09:56.587Z,36.23
2018-12-16T11:12:24.739Z,35.75
2018-12-16T11:14:52.396Z,35.85
2018-12-16T11:17:20.034Z,42.53
2018-12-16T11:19:47.523Z,42.78
2018-12-16T11:22:15.055Z,37.98
2018-12-16T11:24:42.747Z,37.13
2018-12-16T11:27:10.747Z,36.75
2018-12-16T11:29:38.340Z,37.38
2018-12-16T11:32:05.851Z,35.58
2018-12-16T11:34:34.499Z,38.10
2018-12-16T11:37:02.154Z,32.50
2018-12-16T11:39:29.808Z,36.88
2018-12-16T11:41:57.327Z,38.88
2018-12-16T11:44:25.066Z,35.15
2018-12-16T11:46:52.707Z,42.23
2018-12-16T11:49:20.373Z,38.25
2018-12-16T11:51:48.016Z,32.85
2018-12-16T11:54:15.615Z,44.88
2018-12-16T11:56:43.837Z,39.95
2018-12-16T11:59:11.366Z,39.27
2018-12-16T12:01:39.666Z,40.92
2018-12-16T12:04:07.824Z,46.60
2018-12-16T12:06:35.339Z,50.65
2018-12-16T12:09:04.836Z,37.20
2018-12-16T12:14:32.468Z,35.20
2018-12-16T12:17:00.142Z,32.13
2018-12-16T12:19:31.864Z,37.45
2018-12-16T12:22:04.381Z,31.73
2018-12-16T12:24:29.171Z,41.73
2018-12-16T12:26:57.216Z,39.42
2018-12-16T12:29:24.878Z,35.68
2018-12-16T12:31:52.449Z,43.30
2018-12-16T12:34:20.093Z,41.00
2018-12-16T12:36:47.664Z,38.38
2018-12-16T12:39:15.367Z,34.43
2018-12-16T12:41:43.040Z,37.13
2018-12-16T12:44:11.240Z,40.52
2018-12-16T12:46:38.891Z,38.40
2018-12-16T12:49:06.465Z,44.23
2018-12-16T12:51:34.121Z,33.83
2018-12-16T12:54:01.735Z,41.33
2018-12-16T12:56:29.378Z,38.42
2018-12-16T12:58:57.573Z,41.55
2018-12-16T13:01:25.360Z,42.95
2018-12-16T13:03:53.766Z,43.02
2018-12-16T13:06:21.433Z,42.88
2018-12-16T13:08:49.056Z,42.67
2018-12-16T13:11:17.657Z,39.15
2018-12-16T13:13:45.280Z,50.05
2018-12-16T13:16:12.780Z,37.83
2018-12-16T13:18:40.307Z,40.05
2018-12-16T13:21:08.463Z,39.58
2018-12-16T13:23:36.375Z,39.85
2018-12-16T13:26:04.571Z,44.67
2018-12-16T13:28:32.423Z,43.95
2018-12-16T13:31:00.689Z,39.30
2018-12-16T13:33:28.264Z,42.23
2018-12-16T13:35:55.931Z,47.15
2018-12-16T13:38:23.456Z,44.53
2018-12-16T13:40:51.029Z,43.35
2018-12-16T13:43:18.690Z,39.70
2018-12-16T13:45:46.252Z,39.18
2018-12-16T13:48:13.771Z,43.95
2018-12-16T13:50:41.313Z,45.63
2018-12-16T13:53:08.893Z,38.85
2018-12-16T13:55:40.762Z,46.60
2018-12-16T13:58:05.973Z,43.45
2018-12-16T14:00:33.542Z,40.60
2018-12-16T14:03:01.065Z,44.20
2018-12-16T14:05:28.742Z,43.70
2018-12-16T14:07:56.282Z,42.38
2018-12-16T14:10:23.800Z,44.13
2018-12-16T14:12:51.287Z,48.40
2018-12-16T14:15:18.859Z,45.17
2018-12-16T14:17:46.359Z,49.38
2018-12-16T14:20:13.871Z,42.30
2018-12-16T14:22:41.399Z,37.28
2018-12-16T14:25:09.175Z,37.78
2018-12-16T14:27:36.645Z,42.20
2018-12-16T14:30:06.827Z,41.08
2018-12-16T14:32:34.459Z,50.12
2018-12-16T14:35:02.106Z,42.65
2018-12-16T14:37:29.655Z,41.13
2018-12-16T14:39:57.291Z,42.03
2018-12-16T14:42:25.057Z,41.73
2018-12-16T14:44:52.751Z,38.40
2018-12-16T14:47:20.292Z,46.83
2018-12-16T14:49:47.924Z,35.08
2018-12-16T14:52:15.414Z,45.38
2018-12-16T14:54:42.966Z,43.55
2018-12-16T14:57:10.470Z,39.55
2018-12-16T14:59:40.209Z,43.63
2018-12-16T15:02:07.762Z,49.03
2018-12-16T15:04:35.324Z,44.10
2018-12-16T15:07:02.986Z,39.67
2018-12-16T15:09:30.542Z,42.38
2018-12-16T15:11:58.008Z,46.25
2018-12-16T15:14:25.573Z,44.42
2018-12-16T15:16:55.198Z,39.30
2018-12-16T15:19:22.770Z,40.92
2018-12-16T15:21:50.413Z,45.17
2018-12-16T15:24:17.968Z,44.25
2018-12-16T15:26:47.541Z,41.53
2018-12-16T15:29:15.067Z,46.60
2018-12-16T15:31:42.623Z,39.50
2018-12-16T15:34:10.107Z,44.75
2018-12-16T15:36:37.659Z,39.85
2018-12-16T15:39:06.983Z,44.00
2018-12-16T15:41:34.531Z,39.23
2018-12-16T15:44:02.193Z,43.05
2018-12-16T15:46:29.696Z,38.90
2018-12-16T15:48:57.717Z,37.90
2018-12-16T15:51:25.233Z,37.58
2018-12-16T15:53:52.957Z,43.65
2018-12-16T15:56:21.720Z,41.02
2018-12-16T15:58:49.536Z,45.20
2018-12-16T16:01:17.167Z,42.50
2018-12-16T16:03:44.739Z,40.83
2018-12-16T16:06:12.430Z,39.70
2018-12-16T16:08:40.167Z,34.98
2018-12-16T16:11:07.694Z,39.25
2018-12-16T16:13:35.217Z,37.08
2018-12-16T16:16:02.921Z,40.55
2018-12-16T16:18:30.431Z,36.95
2018-12-16T16:20:58.036Z,40.50
2018-12-16T16:23:25.576Z,43.33
2018-12-16T16:25:53.189Z,39.85
2018-12-16T16:28:20.737Z,44.27
2018-12-16T16:30:48.287Z,48.70
2018-12-16T16:33:16.305Z,42.90
2018-12-16T16:35:43.806Z,41.88
2018-12-16T16:38:11.449Z,47.00
2018-12-16T16:40:39.322Z,45.70
2018-12-16T16:43:06.864Z,43.95
2018-12-16T16:45:34.380Z,43.38
2018-12-16T16:48:02.153Z,41.05
2018-12-16T16:50:29.730Z,44.08
2018-12-16T16:52:57.220Z,46.28
2018-12-16T16:55:24.788Z,42.17
2018-12-16T16:57:52.344Z,42.35
2018-12-16T17:00:20.024Z,41.45
2018-12-16T17:02:47.545Z,42.08
2018-12-16T17:05:15.150Z,43.63
2018-12-16T17:07:42.673Z,48.90
2018-12-16T17:10:10.196Z,50.20
2018-12-16T17:12:37.714Z,45.12
2018-12-16T17:15:06.058Z,47.58
2018-12-16T17:17:33.651Z,42.45
2018-12-16T17:20:01.144Z,39.38
2018-12-16T17:22:28.668Z,40.25
2018-12-16T17:24:56.268Z,48.90
2018-12-16T17:27:23.845Z,48.45
2018-12-16T17:29:51.368Z,42.27
2018-12-16T17:32:18.957Z,40.35
2018-12-16T17:34:46.474Z,43.35
2018-12-16T17:37:14.022Z,40.00
2018-12-16T17:39:41.524Z,36.68
2018-12-16T17:42:09.135Z,44.20
2018-12-16T17:44:36.643Z,42.05
2018-12-16T17:47:04.183Z,46.02
2018-12-16T17:49:31.745Z,54.08
2018-12-16T17:51:59.328Z,52.65
2018-12-16T17:54:26.865Z,48.95
2018-12-16T17:56:54.428Z,51.92
2018-12-16T17:59:21.943Z,47.62
2018-12-16T18:01:49.775Z,59.50
2018-12-16T18:04:17.265Z,45.75
2018-12-16T18:06:44.784Z,57.75
2018-12-16T18:09:12.276Z,49.00
2018-12-16T18:11:39.861Z,61.18
2018-12-16T18:14:09.295Z,53.70
2018-12-16T18:16:36.777Z,48.02
2018-12-16T18:19:04.383Z,51.75
2018-12-16T18:21:31.927Z,51.95
2018-12-16T18:23:59.415Z,63.80
2018-12-16T18:26:26.964Z,47.10
2018-12-16T18:28:54.460Z,48.85
2018-12-16T18:31:22.075Z,55.20
2018-12-16T18:33:49.573Z,54.03
2018-12-16T18:36:17.158Z,55.90
2018-12-16T18:38:44.703Z,53.87
2018-12-16T18:41:12.899Z,59.55
2018-12-16T18:43:41.025Z,47.13
2018-12-16T18:46:08.626Z,45.35
2018-12-16T18:48:36.167Z,49.93
2018-12-16T18:53:43.478Z,49.53
2018-12-16T18:56:12.689Z,52.08
2018-12-16T18:58:43.986Z,45.23
2018-12-16T19:01:12.034Z,56.23
2018-12-16T19:03:39.607Z,48.42
2018-12-16T19:06:07.193Z,53.35
2018-12-16T19:08:34.687Z,52.90
2018-12-16T19:11:02.390Z,63.35
2018-12-16T19:13:29.917Z,45.70
2018-12-16T19:15:57.457Z,45.05
2018-12-16T19:18:26.298Z,49.30
2018-12-16T19:20:53.914Z,57.45
2018-12-16T19:23:21.456Z,55.63
2018-12-16T19:25:49.180Z,53.17
2018-12-16T19:28:16.794Z,54.90
2018-12-16T19:30:44.373Z,35.68
2018-12-16T19:33:11.870Z,50.80
2018-12-16T19:35:39.430Z,51.77
2018-12-16T19:38:06.995Z,45.73
2018-12-16T19:40:34.496Z,53.40
2018-12-16T19:43:02.064Z,43.95
2018-12-16T19:45:29.596Z,43.90
2018-12-16T19:47:57.213Z,53.90
2018-12-16T19:50:24.807Z,44.27
2018-12-16T19:52:52.448Z,43.10
2018-12-16T19:55:20.261Z,50.65
2018-12-16T19:57:47.930Z,45.75
2018-12-16T20:00:15.465Z,41.90
2018-12-16T20:02:43.038Z,46.92
2018-12-16T20:05:26.427Z,38.90
2018-12-16T20:07:53.956Z,45.73
2018-12-16T20:10:21.481Z,52.05
2018-12-16T20:12:49.152Z,48.42
2018-12-16T20:15:16.784Z,56.40
2018-12-16T20:17:44.498Z,43.45
2018-12-16T20:20:12.224Z,49.20
2018-12-16T20:22:39.796Z,40.55
2018-12-16T20:25:07.572Z,41.13
2018-12-16T20:27:35.129Z,43.95
2018-12-16T20:30:02.741Z,43.40
2018-12-16T20:32:30.297Z,45.60
2018-12-16T20:34:57.818Z,41.53
2018-12-16T20:37:25.345Z,49.88
2018-12-16T20:39:52.853Z,46.48
2018-12-16T20:42:20.401Z,53.48
2018-12-16T20:44:48.009Z,48.90
2018-12-16T20:47:15.609Z,44.75
2018-12-16T20:49:43.650Z,49.60
2018-12-16T20:52:11.360Z,43.52
2018-12-16T20:54:41.624Z,51.58
2018-12-16T20:57:09.247Z,55.80
2018-12-16T20:59:36.828Z,54.05
2018-12-16T21:02:04.578Z,57.48
2018-12-16T21:04:32.163Z,58.65
2018-12-16T21:06:59.689Z,54.53
2018-12-16T21:09:27.338Z,65.45
2018-12-16T21:12:02.247Z,56.25
2018-12-16T21:14:35.640Z,60.92
2018-12-16T21:17:08.739Z,51.65
2018-12-16T21:19:36.946Z,58.23
2018-12-16T21:22:08.538Z,55.92
2018-12-16T21:24:36.452Z,78.17
2018-12-16T21:27:05.032Z,56.60
2018-12-16T21:29:32.834Z,59.88
2018-12-16T21:32:00.585Z,51.42
2018-12-16T21:34:28.175Z,56.00
2018-12-16T21:36:55.739Z,53.90
2018-12-16T21:39:23.441Z,61.35
2018-12-16T21:41:50.979Z,59.45
2018-12-16T21:44:19.258Z,59.53
2018-12-16T21:46:47.097Z,61.08
2018-12-16T21:49:15.041Z,57.17
2018-12-16T21:51:43.953Z,65.20
2018-12-16T21:54:11.630Z,59.18
2018-12-16T21:56:40.208Z,56.70
2018-12-16T21:59:07.772Z,66.95
2018-12-16T22:01:35.382Z,67.82
2018-12-16T22:04:06.466Z,67.32
2018-12-16T22:06:34.184Z,67.50
2018-12-16T22:09:01.868Z,72.08
2018-12-16T22:11:30.090Z,74.15
2018-12-16T22:13:58.625Z,75.57
2018-12-16T22:16:26.234Z,71.97
2018-12-16T22:18:53.911Z,76.40
2018-12-16T22:21:21.480Z,76.95
2018-12-16T22:23:49.212Z,79.22
2018-12-16T22:26:17.130Z,64.85
2018-12-16T22:28:44.845Z,69.53
2018-12-16T22:31:12.375Z,75.65
2018-12-16T22:33:39.919Z,63.95
2018-12-16T22:36:07.754Z,81.87
2018-12-16T22:38:35.330Z,77.10
2018-12-16T22:41:03.044Z,71.20
2018-12-16T22:43:30.700Z,66.65
2018-12-16T22:45:58.373Z,85.25
2018-12-16T22:48:29.889Z,81.17
2018-12-16T22:50:57.472Z,73.55
2018-12-16T22:53:25.029Z,81.05
2018-12-16T22:55:52.713Z,67.35
2018-12-16T22:58:20.280Z,79.90
2018-12-16T23:03:48.255Z,65.62
2018-12-16T23:06:16.225Z,80.55
2018-12-16T23:08:43.874Z,75.87
2018-12-16T23:11:11.808Z,77.95
2018-12-16T23:13:39.313Z,76.22
2018-12-16T23:16:06.870Z,74.85
2018-12-16T23:18:34.423Z,83.82
2018-12-16T23:21:02.180Z,70.97
2018-12-16T23:23:29.655Z,70.75
2018-12-16T23:25:57.189Z,84.52
2018-12-16T23:28:24.797Z,80.75
2018-12-16T23:30:52.415Z,78.57
2018-12-16T23:33:19.914Z,68.25
2018-12-16T23:35:47.397Z,87.20
2018-12-16T23:38:14.916Z,72.90
2018-12-16T23:40:42.392Z,89.05
2018-12-16T23:43:09.919Z,92.12
2018-12-16T23:45:37.438Z,83.40
2018-12-16T23:48:04.982Z,90.95
2018-12-16T23:50:32.563Z,87.95
2018-12-16T23:53:00.118Z,78.00
2018-12-16T23:55:27.632Z,71.97
2018-12-16T23:58:00.856Z,80.28
